sensor_id;sensor_type;location;lat;lon;timestamp;pressure;altitude;pressure_sealevel;temperature;humidity
60019;BME280;45870;42.528;26.740;2024-02-21T00:02:07;100466.97;;;12.02;42.69
60019;BME280;45870;42.528;26.740;2024-02-21T00:04:32;100470.72;;;12.01;41.51
60019;BME280;45870;42.528;26.740;2024-02-21T00:06:58;100466.38;;;11.82;42.66
60019;BME280;45870;42.528;26.740;2024-02-21T00:09:24;100460.44;;;11.91;42.25
60019;BME280;45870;42.528;26.740;2024-02-21T00:11:49;100474.13;;;11.72;42.05
60019;BME280;45870;42.528;26.740;2024-02-21T00:14:14;100460.66;;;11.90;41.83
60019;BME280;45870;42.528;26.740;2024-02-21T00:16:41;100469.94;;;11.76;41.87
60019;BME280;45870;42.528;26.740;2024-02-21T00:19:06;100238.00;;;10.56;42.73
60019;BME280;45870;42.528;26.740;2024-02-21T00:21:31;100458.19;;;11.64;42.73
60019;BME280;45870;42.528;26.740;2024-02-21T00:23:57;100448.69;;;11.79;42.53
60019;BME280;45870;42.528;26.740;2024-02-21T00:26:22;100447.72;;;11.74;42.66
60019;BME280;45870;42.528;26.740;2024-02-21T00:28:47;100450.22;;;11.44;43.49
60019;BME280;45870;42.528;26.740;2024-02-21T00:31:13;100443.91;;;11.81;42.54
60019;BME280;45870;42.528;26.740;2024-02-21T00:33:38;100445.09;;;11.85;42.05
60019;BME280;45870;42.528;26.740;2024-02-21T00:36:04;100442.31;;;11.74;42.45
60019;BME280;45870;42.528;26.740;2024-02-21T00:38:29;100440.50;;;11.86;43.15
60019;BME280;45870;42.528;26.740;2024-02-21T00:40:55;100443.94;;;11.00;44.41
60019;BME280;45870;42.528;26.740;2024-02-21T00:43:20;100439.75;;;11.05;44.36
60019;BME280;45870;42.528;26.740;2024-02-21T00:45:48;100444.59;;;10.96;44.65
60019;BME280;45870;42.528;26.740;2024-02-21T00:48:14;100431.59;;;11.11;43.56
60019;BME280;45870;42.528;26.740;2024-02-21T00:50:39;100431.38;;;11.37;43.17
60019;BME280;45870;42.528;26.740;2024-02-21T00:53:05;100423.00;;;10.20;44.83
60019;BME280;45870;42.528;26.740;2024-02-21T00:55:30;100423.69;;;10.85;43.65
60019;BME280;45870;42.528;26.740;2024-02-21T00:57:55;100421.56;;;11.18;43.25
60019;BME280;45870;42.528;26.740;2024-02-21T01:00:21;100418.94;;;11.05;43.59
60019;BME280;45870;42.528;26.740;2024-02-21T01:02:47;100425.81;;;11.08;43.98
60019;BME280;45870;42.528;26.740;2024-02-21T01:05:12;100420.34;;;11.14;43.41
60019;BME280;45870;42.528;26.740;2024-02-21T01:07:38;100418.09;;;11.11;43.41
60019;BME280;45870;42.528;26.740;2024-02-21T01:10:03;100412.47;;;10.50;44.92
60019;BME280;45870;42.528;26.740;2024-02-21T01:12:29;100408.13;;;10.42;43.76
60019;BME280;45870;42.528;26.740;2024-02-21T01:14:54;100411.47;;;10.38;43.91
60019;BME280;45870;42.528;26.740;2024-02-21T01:17:20;100409.13;;;10.55;43.18
60019;BME280;45870;42.528;26.740;2024-02-21T01:19:46;100413.78;;;10.72;43.43
60019;BME280;45870;42.528;26.740;2024-02-21T01:22:11;100413.91;;;10.84;43.20
60019;BME280;45870;42.528;26.740;2024-02-21T01:24:37;100410.50;;;10.64;43.57
60019;BME280;45870;42.528;26.740;2024-02-21T01:27:02;100416.25;;;10.74;43.27
60019;BME280;45870;42.528;26.740;2024-02-21T01:29:28;100415.03;;;10.76;43.12
60019;BME280;45870;42.528;26.740;2024-02-21T01:31:53;100408.03;;;10.11;44.23
60019;BME280;45870;42.528;26.740;2024-02-21T01:34:18;100414.72;;;10.53;43.74
60019;BME280;45870;42.528;26.740;2024-02-21T01:36:44;100413.41;;;9.40;44.82
60019;BME280;45870;42.528;26.740;2024-02-21T01:39:09;100400.72;;;9.74;44.40
60019;BME280;45870;42.528;26.740;2024-02-21T01:41:35;100405.59;;;10.03;42.57
60019;BME280;45870;42.528;26.740;2024-02-21T01:44:00;100398.03;;;9.61;42.56
60019;BME280;45870;42.528;26.740;2024-02-21T01:46:25;100398.59;;;9.95;42.08
60019;BME280;45870;42.528;26.740;2024-02-21T01:48:56;100393.63;;;9.79;42.42
60019;BME280;45870;42.528;26.740;2024-02-21T01:51:22;100398.84;;;8.49;45.45
60019;BME280;45870;42.528;26.740;2024-02-21T01:53:48;100399.63;;;7.89;50.77
60019;BME280;45870;42.528;26.740;2024-02-21T01:56:15;100401.59;;;8.15;46.00
60019;BME280;45870;42.528;26.740;2024-02-21T01:58:43;100402.84;;;8.99;46.76
60019;BME280;45870;42.528;26.740;2024-02-21T02:01:12;100407.16;;;9.66;45.56
60019;BME280;45870;42.528;26.740;2024-02-21T02:03:37;100408.44;;;10.21;44.37
60019;BME280;45870;42.528;26.740;2024-02-21T02:06:04;100407.84;;;9.29;43.88
60019;BME280;45870;42.528;26.740;2024-02-21T02:08:30;100408.41;;;8.65;46.07
60019;BME280;45870;42.528;26.740;2024-02-21T02:10:56;100409.03;;;9.59;43.81
60019;BME280;45870;42.528;26.740;2024-02-21T02:13:22;100414.00;;;9.62;43.68
60019;BME280;45870;42.528;26.740;2024-02-21T02:15:48;100415.66;;;9.63;44.03
60019;BME280;45870;42.528;26.740;2024-02-21T02:18:14;100412.50;;;9.79;43.79
60019;BME280;45870;42.528;26.740;2024-02-21T02:20:40;100413.69;;;9.96;42.61
60019;BME280;45870;42.528;26.740;2024-02-21T02:25:50;100414.44;;;9.26;42.38
60019;BME280;45870;42.528;26.740;2024-02-21T02:28:17;100412.72;;;8.53;46.15
60019;BME280;45870;42.528;26.740;2024-02-21T02:30:43;100411.53;;;8.75;46.30
60019;BME280;45870;42.528;26.740;2024-02-21T02:33:08;100415.44;;;8.66;47.10
60019;BME280;45870;42.528;26.740;2024-02-21T02:35:34;100415.22;;;9.73;44.72
60019;BME280;45870;42.528;26.740;2024-02-21T02:38:01;100416.25;;;9.85;44.30
60019;BME280;45870;42.528;26.740;2024-02-21T02:40:27;100414.53;;;9.97;43.13
60019;BME280;45870;42.528;26.740;2024-02-21T02:42:52;100419.66;;;9.28;43.98
60019;BME280;45870;42.528;26.740;2024-02-21T02:45:20;100419.22;;;9.31;44.96
60019;BME280;45870;42.528;26.740;2024-02-21T02:47:45;100415.44;;;9.58;44.42
60019;BME280;45870;42.528;26.740;2024-02-21T02:50:11;100414.78;;;9.76;43.19
60019;BME280;45870;42.528;26.740;2024-02-21T02:52:36;100411.09;;;9.57;43.64
60019;BME280;45870;42.528;26.740;2024-02-21T02:55:02;100415.47;;;9.45;43.18
60019;BME280;45870;42.528;26.740;2024-02-21T02:57:28;100407.94;;;9.86;42.99
60019;BME280;45870;42.528;26.740;2024-02-21T02:59:53;100411.47;;;9.80;42.55
60019;BME280;45870;42.528;26.740;2024-02-21T03:02:19;100402.59;;;9.53;44.01
60019;BME280;45870;42.528;26.740;2024-02-21T03:04:44;100405.13;;;9.16;44.68
60019;BME280;45870;42.528;26.740;2024-02-21T03:07:10;100392.88;;;8.61;46.98
60019;BME280;45870;42.528;26.740;2024-02-21T03:09:38;100393.31;;;9.36;44.95
60019;BME280;45870;42.528;26.740;2024-02-21T03:12:04;100395.75;;;9.64;44.23
60019;BME280;45870;42.528;26.740;2024-02-21T03:14:29;100393.75;;;9.20;45.65
60019;BME280;45870;42.528;26.740;2024-02-21T03:16:55;100388.94;;;8.76;46.28
60019;BME280;45870;42.528;26.740;2024-02-21T03:19:20;100392.63;;;8.49;47.82
60019;BME280;45870;42.528;26.740;2024-02-21T03:21:46;100395.94;;;8.44;48.02
60019;BME280;45870;42.528;26.740;2024-02-21T03:24:11;100398.91;;;8.76;47.16
60019;BME280;45870;42.528;26.740;2024-02-21T03:26:37;100403.25;;;9.23;46.12
60019;BME280;45870;42.528;26.740;2024-02-21T03:29:03;100397.06;;;9.02;46.48
60019;BME280;45870;42.528;26.740;2024-02-21T03:31:28;100400.16;;;9.19;46.16
60019;BME280;45870;42.528;26.740;2024-02-21T03:33:54;100400.78;;;9.28;45.59
60019;BME280;45870;42.528;26.740;2024-02-21T03:36:19;100399.94;;;8.62;46.62
60019;BME280;45870;42.528;26.740;2024-02-21T03:38:45;100401.78;;;8.74;46.25
60019;BME280;45870;42.528;26.740;2024-02-21T03:41:10;100397.25;;;9.40;44.72
60019;BME280;45870;42.528;26.740;2024-02-21T03:43:37;100396.22;;;9.28;44.99
60019;BME280;45870;42.528;26.740;2024-02-21T03:46:03;100399.13;;;9.27;43.67
60019;BME280;45870;42.528;26.740;2024-02-21T03:48:28;100399.31;;;9.12;44.85
60019;BME280;45870;42.528;26.740;2024-02-21T03:50:54;100400.75;;;9.54;44.43
60019;BME280;45870;42.528;26.740;2024-02-21T03:53:19;100408.88;;;8.28;46.14
60019;BME280;45870;42.528;26.740;2024-02-21T03:55:44;100418.66;;;5.61;54.00
60019;BME280;45870;42.528;26.740;2024-02-21T03:58:10;100412.03;;;7.90;49.02
60019;BME280;45870;42.528;26.740;2024-02-21T04:00:35;100417.56;;;9.03;45.37
60019;BME280;45870;42.528;26.740;2024-02-21T04:03:01;100420.78;;;8.46;45.41
60019;BME280;45870;42.528;26.740;2024-02-21T04:05:26;100423.59;;;7.84;46.67
60019;BME280;45870;42.528;26.740;2024-02-21T04:07:52;100409.88;;;8.81;44.31
60019;BME280;45870;42.528;26.740;2024-02-21T04:10:18;100413.53;;;8.47;44.90
60019;BME280;45870;42.528;26.740;2024-02-21T04:12:43;100417.06;;;8.54;44.53
60019;BME280;45870;42.528;26.740;2024-02-21T04:15:09;100417.44;;;8.44;43.47
60019;BME280;45870;42.528;26.740;2024-02-21T04:17:35;100415.66;;;8.65;44.71
60019;BME280;45870;42.528;26.740;2024-02-21T04:20:02;100422.72;;;8.85;43.33
60019;BME280;45870;42.528;26.740;2024-02-21T04:22:30;100417.34;;;8.79;43.11
60019;BME280;45870;42.528;26.740;2024-02-21T04:24:55;100420.88;;;8.99;42.45
60019;BME280;45870;42.528;26.740;2024-02-21T04:27:21;100408.06;;;7.45;45.43
60019;BME280;45870;42.528;26.740;2024-02-21T04:29:46;100411.38;;;7.82;44.61
60019;BME280;45870;42.528;26.740;2024-02-21T04:32:11;100422.31;;;6.97;45.84
60019;BME280;45870;42.528;26.740;2024-02-21T04:34:37;100428.38;;;5.91;48.01
60019;BME280;45870;42.528;26.740;2024-02-21T04:37:02;100432.22;;;5.30;50.81
60019;BME280;45870;42.528;26.740;2024-02-21T04:39:28;100423.75;;;4.59;54.22
60019;BME280;45870;42.528;26.740;2024-02-21T04:41:53;100424.34;;;4.46;54.73
60019;BME280;45870;42.528;26.740;2024-02-21T04:44:19;100422.75;;;6.01;51.94
60019;BME280;45870;42.528;26.740;2024-02-21T04:46:47;100423.75;;;7.42;47.50
60019;BME280;45870;42.528;26.740;2024-02-21T04:49:12;100434.41;;;7.35;47.64
60019;BME280;45870;42.528;26.740;2024-02-21T04:51:39;100427.84;;;8.13;45.93
60019;BME280;45870;42.528;26.740;2024-02-21T04:54:04;100437.22;;;7.83;46.49
60019;BME280;45870;42.528;26.740;2024-02-21T04:56:29;100437.88;;;7.57;47.73
60019;BME280;45870;42.528;26.740;2024-02-21T04:58:55;100439.88;;;8.65;45.92
60019;BME280;45870;42.528;26.740;2024-02-21T05:01:20;100432.13;;;8.35;45.67
60019;BME280;45870;42.528;26.740;2024-02-21T05:03:46;100430.38;;;8.88;44.99
60019;BME280;45870;42.528;26.740;2024-02-21T05:06:13;100437.13;;;8.51;45.28
60019;BME280;45870;42.528;26.740;2024-02-21T05:08:39;100438.47;;;8.28;45.44
60019;BME280;45870;42.528;26.740;2024-02-21T05:11:05;100433.28;;;8.87;44.60
60019;BME280;45870;42.528;26.740;2024-02-21T05:13:30;100444.69;;;9.48;44.44
60019;BME280;45870;42.528;26.740;2024-02-21T05:15:56;100445.66;;;8.14;46.00
60019;BME280;45870;42.528;26.740;2024-02-21T05:18:21;100450.50;;;7.91;47.36
60019;BME280;45870;42.528;26.740;2024-02-21T05:20:46;100460.31;;;7.22;49.49
60019;BME280;45870;42.528;26.740;2024-02-21T05:23:12;100469.28;;;7.57;49.07
60019;BME280;45870;42.528;26.740;2024-02-21T05:25:37;100467.66;;;8.98;45.67
60019;BME280;45870;42.528;26.740;2024-02-21T05:28:03;100474.72;;;8.99;46.30
60019;BME280;45870;42.528;26.740;2024-02-21T05:30:28;100471.84;;;9.27;45.08
60019;BME280;45870;42.528;26.740;2024-02-21T05:32:54;100475.31;;;8.88;46.29
60019;BME280;45870;42.528;26.740;2024-02-21T05:35:24;100486.88;;;7.10;52.38
60019;BME280;45870;42.528;26.740;2024-02-21T05:37:49;100486.38;;;8.11;49.33
60019;BME280;45870;42.528;26.740;2024-02-21T05:40:17;100495.81;;;7.38;51.44
60019;BME280;45870;42.528;26.740;2024-02-21T05:42:43;100497.34;;;7.26;52.22
60019;BME280;45870;42.528;26.740;2024-02-21T05:45:08;100492.16;;;7.74;50.59
60019;BME280;45870;42.528;26.740;2024-02-21T05:47:34;100487.81;;;7.45;51.34
60019;BME280;45870;42.528;26.740;2024-02-21T05:50:00;100497.91;;;7.00;53.33
60019;BME280;45870;42.528;26.740;2024-02-21T05:52:25;100492.69;;;8.72;48.90
60019;BME280;45870;42.528;26.740;2024-02-21T05:54:50;100483.38;;;9.99;45.62
60019;BME280;45870;42.528;26.740;2024-02-21T05:57:19;100489.84;;;9.79;46.41
60019;BME280;45870;42.528;26.740;2024-02-21T05:59:44;100488.66;;;9.42;47.44
60019;BME280;45870;42.528;26.740;2024-02-21T06:02:09;100490.72;;;9.60;47.58
60019;BME280;45870;42.528;26.740;2024-02-21T06:04:35;100496.44;;;8.91;49.60
60019;BME280;45870;42.528;26.740;2024-02-21T06:07:01;100486.88;;;10.33;46.40
60019;BME280;45870;42.528;26.740;2024-02-21T06:09:27;100493.91;;;11.16;44.92
60019;BME280;45870;42.528;26.740;2024-02-21T06:11:52;100494.56;;;11.68;44.27
60019;BME280;45870;42.528;26.740;2024-02-21T06:14:20;100491.69;;;12.60;44.13
60019;BME280;45870;42.528;26.740;2024-02-21T06:16:45;100496.06;;;12.43;44.25
60019;BME280;45870;42.528;26.740;2024-02-21T06:19:11;100505.59;;;12.64;44.93
60019;BME280;45870;42.528;26.740;2024-02-21T06:21:36;100501.41;;;13.27;43.71
60019;BME280;45870;42.528;26.740;2024-02-21T06:24:02;100505.16;;;13.68;42.02
60019;BME280;45870;42.528;26.740;2024-02-21T06:26:27;100503.22;;;13.45;41.60
60019;BME280;45870;42.528;26.740;2024-02-21T06:28:53;100500.91;;;12.71;42.80
60019;BME280;45870;42.528;26.740;2024-02-21T06:31:18;100503.91;;;12.81;41.96
60019;BME280;45870;42.528;26.740;2024-02-21T06:33:44;100514.75;;;13.29;42.34
60019;BME280;45870;42.528;26.740;2024-02-21T06:36:09;100514.44;;;13.60;42.41
60019;BME280;45870;42.528;26.740;2024-02-21T06:38:34;100507.06;;;12.48;45.23
60019;BME280;45870;42.528;26.740;2024-02-21T06:41:00;100511.97;;;14.40;44.61
60019;BME280;45870;42.528;26.740;2024-02-21T06:43:27;100504.38;;;16.43;41.11
60019;BME280;45870;42.528;26.740;2024-02-21T06:45:53;100509.81;;;15.22;43.41
60019;BME280;45870;42.528;26.740;2024-02-21T06:48:20;100509.28;;;16.03;40.93
60019;BME280;45870;42.528;26.740;2024-02-21T06:50:45;100510.13;;;18.03;38.57
60019;BME280;45870;42.528;26.740;2024-02-21T06:53:11;100505.28;;;17.73;38.08
60019;BME280;45870;42.528;26.740;2024-02-21T06:55:36;100502.38;;;18.83;35.27
60019;BME280;45870;42.528;26.740;2024-02-21T06:58:01;100512.66;;;19.94;33.36
60019;BME280;45870;42.528;26.740;2024-02-21T07:00:30;100505.69;;;21.55;31.61
60019;BME280;45870;42.528;26.740;2024-02-21T07:02:55;100509.91;;;21.42;31.02
60019;BME280;45870;42.528;26.740;2024-02-21T07:05:21;100521.44;;;19.76;32.99
60019;BME280;45870;42.528;26.740;2024-02-21T07:07:47;100526.06;;;20.16;32.22
60019;BME280;45870;42.528;26.740;2024-02-21T07:10:12;100521.66;;;20.40;32.61
60019;BME280;45870;42.528;26.740;2024-02-21T07:12:38;100524.72;;;19.63;33.31
60019;BME280;45870;42.528;26.740;2024-02-21T07:15:07;100517.88;;;17.20;36.95
60019;BME280;45870;42.528;26.740;2024-02-21T07:17:32;100524.78;;;18.33;36.10
60019;BME280;45870;42.528;26.740;2024-02-21T07:19:58;100517.13;;;18.82;34.54
60019;BME280;45870;42.528;26.740;2024-02-21T07:22:24;100517.59;;;20.91;32.63
60019;BME280;45870;42.528;26.740;2024-02-21T07:24:49;100521.94;;;20.98;31.63
60019;BME280;45870;42.528;26.740;2024-02-21T07:27:15;100522.78;;;19.78;33.62
60019;BME280;45870;42.528;26.740;2024-02-21T07:29:40;100520.56;;;20.26;32.71
60019;BME280;45870;42.528;26.740;2024-02-21T07:32:06;100515.75;;;18.75;34.62
60019;BME280;45870;42.528;26.740;2024-02-21T07:34:31;100518.72;;;17.84;37.42
60019;BME280;45870;42.528;26.740;2024-02-21T07:36:57;100522.25;;;16.34;39.70
60019;BME280;45870;42.528;26.740;2024-02-21T07:39:22;100522.16;;;16.29;39.24
60019;BME280;45870;42.528;26.740;2024-02-21T07:41:48;100518.63;;;19.35;34.60
60019;BME280;45870;42.528;26.740;2024-02-21T07:44:17;100520.63;;;19.65;34.13
60019;BME280;45870;42.528;26.740;2024-02-21T07:46:42;100524.69;;;19.88;33.68
60019;BME280;45870;42.528;26.740;2024-02-21T07:49:08;100525.25;;;19.75;33.31
60019;BME280;45870;42.528;26.740;2024-02-21T07:51:33;100522.78;;;19.43;34.34
60019;BME280;45870;42.528;26.740;2024-02-21T07:54:00;100521.38;;;20.26;33.38
60019;BME280;45870;42.528;26.740;2024-02-21T07:56:27;100517.53;;;20.37;32.19
60019;BME280;45870;42.528;26.740;2024-02-21T07:58:52;100515.84;;;18.48;35.87
60019;BME280;45870;42.528;26.740;2024-02-21T08:01:21;100516.59;;;18.33;35.83
60019;BME280;45870;42.528;26.740;2024-02-21T08:03:47;100510.69;;;19.29;34.13
60019;BME280;45870;42.528;26.740;2024-02-21T08:06:12;100510.81;;;17.51;36.97
60019;BME280;45870;42.528;26.740;2024-02-21T08:08:38;100509.81;;;17.94;37.70
60019;BME280;45870;42.528;26.740;2024-02-21T08:11:04;100507.63;;;17.96;38.02
60019;BME280;45870;42.528;26.740;2024-02-21T08:13:29;100506.25;;;18.92;36.49
60019;BME280;45870;42.528;26.740;2024-02-21T08:15:55;100502.66;;;18.82;35.63
60019;BME280;45870;42.528;26.740;2024-02-21T08:18:20;100503.03;;;17.65;37.95
60019;BME280;45870;42.528;26.740;2024-02-21T08:20:46;100504.25;;;16.33;42.24
60019;BME280;45870;42.528;26.740;2024-02-21T08:23:11;100493.94;;;17.91;39.27
60019;BME280;45870;42.528;26.740;2024-02-21T08:25:37;100505.81;;;15.91;40.68
60019;BME280;45870;42.528;26.740;2024-02-21T08:28:02;100499.78;;;18.05;38.03
60019;BME280;45870;42.528;26.740;2024-02-21T08:30:28;100501.25;;;18.79;35.86
60019;BME280;45870;42.528;26.740;2024-02-21T08:32:53;100495.19;;;20.74;32.36
60019;BME280;45870;42.528;26.740;2024-02-21T08:35:21;100496.69;;;17.32;37.69
60019;BME280;45870;42.528;26.740;2024-02-21T08:37:50;100500.53;;;19.09;35.96
60019;BME280;45870;42.528;26.740;2024-02-21T08:40:15;100488.75;;;18.36;36.82
60019;BME280;45870;42.528;26.740;2024-02-21T08:42:46;100497.66;;;20.66;32.09
60019;BME280;45870;42.528;26.740;2024-02-21T08:45:11;100495.06;;;20.20;33.08
60019;BME280;45870;42.528;26.740;2024-02-21T08:47:40;100492.66;;;19.78;33.22
60019;BME280;45870;42.528;26.740;2024-02-21T08:50:06;100485.88;;;20.70;32.36
60019;BME280;45870;42.528;26.740;2024-02-21T08:52:32;100491.72;;;20.54;32.41
60019;BME280;45870;42.528;26.740;2024-02-21T08:54:57;100494.91;;;18.69;34.21
60019;BME280;45870;42.528;26.740;2024-02-21T08:57:23;100495.56;;;20.48;31.87
60019;BME280;45870;42.528;26.740;2024-02-21T08:59:48;100492.56;;;21.03;30.79
60019;BME280;45870;42.528;26.740;2024-02-21T09:02:13;100493.72;;;21.41;30.31
60019;BME280;45870;42.528;26.740;2024-02-21T09:04:41;100494.91;;;17.16;37.03
60019;BME280;45870;42.528;26.740;2024-02-21T09:07:07;100484.41;;;17.93;35.18
60019;BME280;45870;42.528;26.740;2024-02-21T09:09:32;100492.31;;;17.58;35.39
60019;BME280;45870;42.528;26.740;2024-02-21T09:11:58;100487.94;;;19.28;32.07
60019;BME280;45870;42.528;26.740;2024-02-21T09:14:30;100488.75;;;19.09;32.11
60019;BME280;45870;42.528;26.740;2024-02-21T09:16:56;100486.84;;;17.31;35.80
60019;BME280;45870;42.528;26.740;2024-02-21T09:19:21;100478.44;;;19.56;31.96
60019;BME280;45870;42.528;26.740;2024-02-21T09:21:47;100485.28;;;18.51;33.69
60019;BME280;45870;42.528;26.740;2024-02-21T09:24:12;100488.38;;;18.70;34.08
60019;BME280;45870;42.528;26.740;2024-02-21T09:26:38;100486.31;;;19.32;32.41
60019;BME280;45870;42.528;26.740;2024-02-21T09:29:03;100488.50;;;19.35;31.86
60019;BME280;45870;42.528;26.740;2024-02-21T09:31:29;100481.09;;;20.91;29.59
60019;BME280;45870;42.528;26.740;2024-02-21T09:33:54;100488.47;;;20.16;30.88
60019;BME280;45870;42.528;26.740;2024-02-21T09:36:19;100484.84;;;18.74;33.92
60019;BME280;45870;42.528;26.740;2024-02-21T09:38:46;100480.13;;;18.13;34.03
60019;BME280;45870;42.528;26.740;2024-02-21T09:43:37;100481.06;;;17.86;33.84
60019;BME280;45870;42.528;26.740;2024-02-21T09:46:05;100478.91;;;16.98;34.67
60019;BME280;45870;42.528;26.740;2024-02-21T09:48:38;100479.69;;;18.31;33.40
60019;BME280;45870;42.528;26.740;2024-02-21T09:51:08;100469.31;;;18.95;32.61
60019;BME280;45870;42.528;26.740;2024-02-21T09:53:34;100468.56;;;19.90;30.53
60019;BME280;45870;42.528;26.740;2024-02-21T09:56:02;100461.31;;;16.84;35.11
60019;BME280;45870;42.528;26.740;2024-02-21T09:58:28;100467.72;;;17.26;34.54
60019;BME280;45870;42.528;26.740;2024-02-21T10:00:54;100467.00;;;18.57;31.24
60019;BME280;45870;42.528;26.740;2024-02-21T10:03:19;100462.31;;;17.63;33.21
60019;BME280;45870;42.528;26.740;2024-02-21T10:05:47;100461.09;;;17.81;32.01
60019;BME280;45870;42.528;26.740;2024-02-21T10:08:16;100466.19;;;17.09;33.41
60019;BME280;45870;42.528;26.740;2024-02-21T10:10:45;100459.34;;;18.59;31.58
60019;BME280;45870;42.528;26.740;2024-02-21T10:13:10;100461.59;;;18.20;31.64
60019;BME280;45870;42.528;26.740;2024-02-21T10:15:37;100443.56;;;18.19;31.92
60019;BME280;45870;42.528;26.740;2024-02-21T10:18:03;100455.31;;;20.13;27.99
60019;BME280;45870;42.528;26.740;2024-02-21T10:20:34;100447.72;;;17.84;31.61
60019;BME280;45870;42.528;26.740;2024-02-21T10:23:00;100443.72;;;17.97;29.27
60019;BME280;45870;42.528;26.740;2024-02-21T10:25:27;100441.88;;;17.34;29.80
60019;BME280;45870;42.528;26.740;2024-02-21T10:27:52;100431.88;;;17.44;30.11
60019;BME280;45870;42.528;26.740;2024-02-21T10:30:17;100428.78;;;17.68;30.20
60019;BME280;45870;42.528;26.740;2024-02-21T10:32:50;100432.28;;;18.62;28.91
60019;BME280;45870;42.528;26.740;2024-02-21T10:35:24;100428.88;;;19.63;26.61
60019;BME280;45870;42.528;26.740;2024-02-21T10:37:50;100420.56;;;18.10;29.62
60019;BME280;45870;42.528;26.740;2024-02-21T10:40:20;100411.84;;;18.85;28.75
60019;BME280;45870;42.528;26.740;2024-02-21T10:42:46;100405.88;;;17.37;32.06
60019;BME280;45870;42.528;26.740;2024-02-21T10:45:11;100407.53;;;17.06;32.93
60019;BME280;45870;42.528;26.740;2024-02-21T10:47:37;100405.56;;;18.17;30.32
60019;BME280;45870;42.528;26.740;2024-02-21T10:50:04;100406.66;;;19.19;30.21
60019;BME280;45870;42.528;26.740;2024-02-21T10:55:04;100399.66;;;18.35;29.33
60019;BME280;45870;42.528;26.740;2024-02-21T10:57:31;100393.69;;;17.86;30.46
60019;BME280;45870;42.528;26.740;2024-02-21T10:59:56;100393.66;;;17.44;30.90
60019;BME280;45870;42.528;26.740;2024-02-21T11:02:23;100385.28;;;17.56;30.62
60019;BME280;45870;42.528;26.740;2024-02-21T11:04:49;100391.06;;;19.14;28.59
60019;BME280;45870;42.528;26.740;2024-02-21T11:07:15;100385.81;;;18.67;29.04
60019;BME280;45870;42.528;26.740;2024-02-21T11:09:50;100379.31;;;20.87;25.93
60019;BME280;45870;42.528;26.740;2024-02-21T11:12:19;100383.69;;;19.00;28.88
60019;BME280;45870;42.528;26.740;2024-02-21T11:14:45;100379.72;;;21.05;25.65
60019;BME280;45870;42.528;26.740;2024-02-21T11:19:43;100367.75;;;19.82;28.38
60019;BME280;45870;42.528;26.740;2024-02-21T11:22:17;100371.31;;;17.94;32.54
60019;BME280;45870;42.528;26.740;2024-02-21T11:24:43;100367.53;;;17.17;33.22
60019;BME280;45870;42.528;26.740;2024-02-21T11:27:12;100372.72;;;19.30;28.82
60019;BME280;45870;42.528;26.740;2024-02-21T11:29:44;100363.69;;;18.74;29.50
60019;BME280;45870;42.528;26.740;2024-02-21T11:32:10;100364.75;;;19.69;27.01
60019;BME280;45870;42.528;26.740;2024-02-21T11:34:36;100336.94;;;17.52;30.62
60019;BME280;45870;42.528;26.740;2024-02-21T11:37:02;100358.81;;;20.26;26.34
60019;BME280;45870;42.528;26.740;2024-02-21T11:39:37;100359.84;;;19.61;27.69
60019;BME280;45870;42.528;26.740;2024-02-21T11:42:04;100353.81;;;20.38;27.00
60019;BME280;45870;42.528;26.740;2024-02-21T11:44:31;100349.47;;;19.12;27.43
60019;BME280;45870;42.528;26.740;2024-02-21T11:46:56;100350.44;;;20.56;26.13
60019;BME280;45870;42.528;26.740;2024-02-21T11:49:24;100346.13;;;19.76;26.29
60019;BME280;45870;42.528;26.740;2024-02-21T11:51:57;100334.38;;;19.40;27.28
60019;BME280;45870;42.528;26.740;2024-02-21T11:54:22;100326.50;;;19.03;27.96
60019;BME280;45870;42.528;26.740;2024-02-21T11:56:47;100334.69;;;19.43;26.95
60019;BME280;45870;42.528;26.740;2024-02-21T11:59:13;100330.75;;;19.85;26.50
60019;BME280;45870;42.528;26.740;2024-02-21T12:01:38;100324.28;;;22.13;24.57
60019;BME280;45870;42.528;26.740;2024-02-21T12:04:04;100326.66;;;20.41;26.32
60019;BME280;45870;42.528;26.740;2024-02-21T12:06:29;100322.97;;;21.00;25.57
60019;BME280;45870;42.528;26.740;2024-02-21T12:08:57;100316.06;;;19.56;28.35
60019;BME280;45870;42.528;26.740;2024-02-21T12:11:23;100316.22;;;21.74;24.94
60019;BME280;45870;42.528;26.740;2024-02-21T12:14:01;100316.94;;;21.32;25.76
60019;BME280;45870;42.528;26.740;2024-02-21T12:16:28;100313.53;;;21.11;25.50
60019;BME280;45870;42.528;26.740;2024-02-21T12:18:55;100316.88;;;19.36;27.48
60019;BME280;45870;42.528;26.740;2024-02-21T12:21:30;100306.47;;;19.63;27.65
60019;BME280;45870;42.528;26.740;2024-02-21T12:23:57;100318.00;;;18.64;29.55
60019;BME280;45870;42.528;26.740;2024-02-21T12:26:23;100303.75;;;19.33;28.12
60019;BME280;45870;42.528;26.740;2024-02-21T12:28:48;100300.50;;;19.41;28.31
60019;BME280;45870;42.528;26.740;2024-02-21T12:31:14;100309.41;;;17.16;31.83
60019;BME280;45870;42.528;26.740;2024-02-21T12:33:41;100306.28;;;17.86;30.79
60019;BME280;45870;42.528;26.740;2024-02-21T12:36:07;100305.69;;;18.77;29.58
60019;BME280;45870;42.528;26.740;2024-02-21T12:38:34;100302.25;;;19.91;27.51
60019;BME280;45870;42.528;26.740;2024-02-21T12:40:59;100301.81;;;21.82;24.91
60019;BME280;45870;42.528;26.740;2024-02-21T12:43:25;100311.44;;;22.27;24.36
60019;BME280;45870;42.528;26.740;2024-02-21T12:45:51;100308.13;;;21.01;25.43
60019;BME280;45870;42.528;26.740;2024-02-21T12:48:16;100299.63;;;19.56;27.62